sensor_id;sensor_type;location;lat;lon;timestamp;P1;durP1;ratioP1;P2;durP2;ratioP2
62724;SDS011;49026;52.600;4.694;2023-03-16T00:01:59;7.18;;;3.55;;
62724;SDS011;49026;52.600;4.694;2023-03-16T00:04:25;2.03;;;1.52;;
62724;SDS011;49026;52.600;4.694;2023-03-16T00:06:52;4.78;;;2.90;;
62724;SDS011;49026;52.600;4.694;2023-03-16T00:09:18;4.38;;;2.80;;
62724;SDS011;49026;52.600;4.694;2023-03-16T00:11:43;6.10;;;3.20;;
62724;SDS011;49026;52.600;4.694;2023-03-16T00:14:08;4.65;;;2.65;;
62724;SDS011;49026;52.600;4.694;2023-03-16T00:16:36;6.60;;;3.50;;
62724;SDS011;49026;52.600;4.694;2023-03-16T00:19:01;7.80;;;3.05;;
62724;SDS011;49026;52.600;4.694;2023-03-16T00:21:27;6.43;;;3.28;;
62724;SDS011;49026;52.600;4.694;2023-03-16T00:23:56;4.63;;;2.60;;
62724;SDS011;49026;52.600;4.694;2023-03-16T00:26:22;3.97;;;2.55;;
62724;SDS011;49026;52.600;4.694;2023-03-16T00:28:49;4.57;;;2.70;;
62724;SDS011;49026;52.600;4.694;2023-03-16T00:31:18;5.78;;;2.85;;
62724;SDS011;49026;52.600;4.694;2023-03-16T00:33:44;3.80;;;2.25;;
62724;SDS011;49026;52.600;4.694;2023-03-16T00:36:12;4.43;;;2.47;;
62724;SDS011;49026;52.600;4.694;2023-03-16T00:38:38;7.50;;;3.08;;
62724;SDS011;49026;52.600;4.694;2023-03-16T00:41:10;5.10;;;2.90;;
62724;SDS011;49026;52.600;4.694;2023-03-16T00:43:39;7.47;;;2.47;;
62724;SDS011;49026;52.600;4.694;2023-03-16T00:46:09;4.20;;;2.90;;
62724;SDS011;49026;52.600;4.694;2023-03-16T00:48:36;4.05;;;2.28;;
62724;SDS011;49026;52.600;4.694;2023-03-16T00:51:09;7.22;;;3.00;;
62724;SDS011;49026;52.600;4.694;2023-03-16T00:53:44;7.82;;;3.97;;
62724;SDS011;49026;52.600;4.694;2023-03-16T00:56:10;4.28;;;2.55;;
62724;SDS011;49026;52.600;4.694;2023-03-16T00:58:39;4.50;;;3.15;;
62724;SDS011;49026;52.600;4.694;2023-03-16T01:01:14;5.43;;;2.90;;
62724;SDS011;49026;52.600;4.694;2023-03-16T01:03:44;8.52;;;3.42;;
62724;SDS011;49026;52.600;4.694;2023-03-16T01:06:11;6.07;;;3.45;;
62724;SDS011;49026;52.600;4.694;2023-03-16T01:08:41;5.63;;;2.88;;
62724;SDS011;49026;52.600;4.694;2023-03-16T01:11:08;4.55;;;2.80;;
62724;SDS011;49026;52.600;4.694;2023-03-16T01:13:36;4.18;;;2.40;;
62724;SDS011;49026;52.600;4.694;2023-03-16T01:16:02;3.97;;;1.65;;
62724;SDS011;49026;52.600;4.694;2023-03-16T01:18:29;5.38;;;3.38;;
62724;SDS011;49026;52.600;4.694;2023-03-16T01:20:58;3.57;;;2.47;;
62724;SDS011;49026;52.600;4.694;2023-03-16T01:23:23;5.10;;;2.58;;
62724;SDS011;49026;52.600;4.694;2023-03-16T01:25:52;5.97;;;3.38;;
62724;SDS011;49026;52.600;4.694;2023-03-16T01:28:21;6.30;;;2.90;;
62724;SDS011;49026;52.600;4.694;2023-03-16T01:30:52;5.85;;;3.28;;
62724;SDS011;49026;52.600;4.694;2023-03-16T01:33:28;6.70;;;3.90;;
62724;SDS011;49026;52.600;4.694;2023-03-16T01:35:54;3.70;;;2.47;;
62724;SDS011;49026;52.600;4.694;2023-03-16T01:38:31;6.03;;;3.58;;
62724;SDS011;49026;52.600;4.694;2023-03-16T01:40:58;8.57;;;4.63;;
62724;SDS011;49026;52.600;4.694;2023-03-16T01:43:24;6.53;;;3.15;;
62724;SDS011;49026;52.600;4.694;2023-03-16T01:51:23;3.85;;;2.33;;
62724;SDS011;49026;52.600;4.694;2023-03-16T01:54:03;7.28;;;3.45;;
62724;SDS011;49026;52.600;4.694;2023-03-16T01:59:32;7.32;;;3.10;;
62724;SDS011;49026;52.600;4.694;2023-03-16T02:02:02;6.80;;;3.97;;
62724;SDS011;49026;52.600;4.694;2023-03-16T02:06:57;5.03;;;3.33;;
62724;SDS011;49026;52.600;4.694;2023-03-16T02:09:24;9.30;;;3.38;;
62724;SDS011;49026;52.600;4.694;2023-03-16T02:11:50;8.13;;;3.80;;
62724;SDS011;49026;52.600;4.694;2023-03-16T02:14:19;6.38;;;2.95;;
62724;SDS011;49026;52.600;4.694;2023-03-16T02:16:48;6.03;;;3.08;;
62724;SDS011;49026;52.600;4.694;2023-03-16T02:19:23;8.73;;;4.47;;
62724;SDS011;49026;52.600;4.694;2023-03-16T02:22:08;8.00;;;4.10;;
62724;SDS011;49026;52.600;4.694;2023-03-16T02:24:37;5.88;;;3.72;;
62724;SDS011;49026;52.600;4.694;2023-03-16T02:27:06;7.00;;;4.32;;
62724;SDS011;49026;52.600;4.694;2023-03-16T02:29:55;3.50;;;2.22;;
62724;SDS011;49026;52.600;4.694;2023-03-16T02:32:22;7.88;;;4.25;;
62724;SDS011;49026;52.600;4.694;2023-03-16T02:34:49;7.43;;;3.95;;
62724;SDS011;49026;52.600;4.694;2023-03-16T02:37:17;3.38;;;2.67;;
62724;SDS011;49026;52.600;4.694;2023-03-16T02:39:42;11.75;;;4.53;;
62724;SDS011;49026;52.600;4.694;2023-03-16T02:42:09;5.82;;;3.25;;
62724;SDS011;49026;52.600;4.694;2023-03-16T02:44:39;18.02;;;4.38;;
62724;SDS011;49026;52.600;4.694;2023-03-16T02:47:12;8.25;;;4.20;;
62724;SDS011;49026;52.600;4.694;2023-03-16T02:49:44;9.77;;;4.18;;
62724;SDS011;49026;52.600;4.694;2023-03-16T02:52:10;8.20;;;4.20;;
62724;SDS011;49026;52.600;4.694;2023-03-16T02:54:36;6.65;;;4.07;;
62724;SDS011;49026;52.600;4.694;2023-03-16T02:57:04;4.88;;;3.45;;
62724;SDS011;49026;52.600;4.694;2023-03-16T02:59:29;7.93;;;4.88;;
62724;SDS011;49026;52.600;4.694;2023-03-16T03:01:55;3.97;;;2.65;;
62724;SDS011;49026;52.600;4.694;2023-03-16T03:04:24;9.48;;;4.00;;
62724;SDS011;49026;52.600;4.694;2023-03-16T03:06:50;9.02;;;4.90;;
62724;SDS011;49026;52.600;4.694;2023-03-16T03:09:16;6.07;;;3.17;;
62724;SDS011;49026;52.600;4.694;2023-03-16T03:11:42;7.38;;;3.88;;
62724;SDS011;49026;52.600;4.694;2023-03-16T03:14:08;10.80;;;4.85;;
62724;SDS011;49026;52.600;4.694;2023-03-16T03:16:36;8.60;;;4.20;;
62724;SDS011;49026;52.600;4.694;2023-03-16T03:19:01;4.90;;;3.00;;
62724;SDS011;49026;52.600;4.694;2023-03-16T03:21:27;12.98;;;4.00;;
62724;SDS011;49026;52.600;4.694;2023-03-16T03:23:52;8.15;;;4.35;;
62724;SDS011;49026;52.600;4.694;2023-03-16T03:26:18;8.30;;;3.95;;
62724;SDS011;49026;52.600;4.694;2023-03-16T03:28:44;7.72;;;4.57;;
62724;SDS011;49026;52.600;4.694;2023-03-16T03:31:13;5.55;;;3.90;;
62724;SDS011;49026;52.600;4.694;2023-03-16T03:33:40;8.55;;;4.60;;
62724;SDS011;49026;52.600;4.694;2023-03-16T03:36:07;5.97;;;3.53;;
62724;SDS011;49026;52.600;4.694;2023-03-16T03:38:34;10.52;;;4.70;;
62724;SDS011;49026;52.600;4.694;2023-03-16T03:40:59;6.18;;;3.95;;
62724;SDS011;49026;52.600;4.694;2023-03-16T03:43:25;10.38;;;5.32;;
62724;SDS011;49026;52.600;4.694;2023-03-16T03:45:57;8.20;;;4.93;;
62724;SDS011;49026;52.600;4.694;2023-03-16T03:48:23;7.68;;;3.85;;
62724;SDS011;49026;52.600;4.694;2023-03-16T03:50:49;8.38;;;4.78;;
62724;SDS011;49026;52.600;4.694;2023-03-16T03:53:15;7.07;;;4.13;;
62724;SDS011;49026;52.600;4.694;2023-03-16T03:55:40;8.57;;;4.22;;
62724;SDS011;49026;52.600;4.694;2023-03-16T03:58:06;6.25;;;4.03;;
62724;SDS011;49026;52.600;4.694;2023-03-16T04:00:31;10.80;;;4.55;;
62724;SDS011;49026;52.600;4.694;2023-03-16T04:02:59;6.90;;;4.30;;
62724;SDS011;49026;52.600;4.694;2023-03-16T04:05:27;7.03;;;4.05;;
62724;SDS011;49026;52.600;4.694;2023-03-16T04:07:53;7.63;;;4.72;;
62724;SDS011;49026;52.600;4.694;2023-03-16T04:10:30;4.60;;;2.45;;
62724;SDS011;49026;52.600;4.694;2023-03-16T04:12:56;9.18;;;5.07;;
62724;SDS011;49026;52.600;4.694;2023-03-16T04:15:22;7.55;;;4.82;;
62724;SDS011;49026;52.600;4.694;2023-03-16T04:17:48;7.32;;;4.20;;
62724;SDS011;49026;52.600;4.694;2023-03-16T04:20:16;9.95;;;3.60;;
62724;SDS011;49026;52.600;4.694;2023-03-16T04:22:43;10.25;;;5.35;;
62724;SDS011;49026;52.600;4.694;2023-03-16T04:25:24;7.18;;;4.28;;
62724;SDS011;49026;52.600;4.694;2023-03-16T04:27:52;5.95;;;3.15;;
62724;SDS011;49026;52.600;4.694;2023-03-16T04:30:18;5.90;;;3.53;;
62724;SDS011;49026;52.600;4.694;2023-03-16T04:32:43;4.63;;;3.03;;
62724;SDS011;49026;52.600;4.694;2023-03-16T04:35:11;7.80;;;5.03;;
62724;SDS011;49026;52.600;4.694;2023-03-16T04:37:39;9.38;;;4.30;;
62724;SDS011;49026;52.600;4.694;2023-03-16T04:40:05;7.82;;;4.05;;
62724;SDS011;49026;52.600;4.694;2023-03-16T04:42:40;8.68;;;4.47;;
62724;SDS011;49026;52.600;4.694;2023-03-16T04:45:05;12.68;;;4.40;;
62724;SDS011;49026;52.600;4.694;2023-03-16T04:47:31;5.18;;;2.47;;
62724;SDS011;49026;52.600;4.694;2023-03-16T04:50:01;11.93;;;4.72;;
62724;SDS011;49026;52.600;4.694;2023-03-16T04:52:26;7.13;;;4.30;;
62724;SDS011;49026;52.600;4.694;2023-03-16T04:54:54;5.30;;;3.13;;
62724;SDS011;49026;52.600;4.694;2023-03-16T04:57:20;6.95;;;3.30;;
62724;SDS011;49026;52.600;4.694;2023-03-16T04:59:45;6.22;;;3.92;;
62724;SDS011;49026;52.600;4.694;2023-03-16T05:02:10;6.30;;;3.75;;
62724;SDS011;49026;52.600;4.694;2023-03-16T05:04:36;10.10;;;4.45;;
62724;SDS011;49026;52.600;4.694;2023-03-16T05:07:06;6.28;;;3.97;;
62724;SDS011;49026;52.600;4.694;2023-03-16T05:09:31;6.82;;;3.15;;
62724;SDS011;49026;52.600;4.694;2023-03-16T05:11:57;7.65;;;3.45;;
62724;SDS011;49026;52.600;4.694;2023-03-16T05:14:23;5.00;;;3.13;;
62724;SDS011;49026;52.600;4.694;2023-03-16T05:16:48;9.75;;;4.63;;
62724;SDS011;49026;52.600;4.694;2023-03-16T05:19:13;10.07;;;4.15;;
62724;SDS011;49026;52.600;4.694;2023-03-16T05:21:39;5.15;;;3.05;;
62724;SDS011;49026;52.600;4.694;2023-03-16T05:24:07;8.10;;;4.45;;
62724;SDS011;49026;52.600;4.694;2023-03-16T05:26:33;7.13;;;4.17;;
62724;SDS011;49026;52.600;4.694;2023-03-16T05:28:59;9.30;;;4.65;;
62724;SDS011;49026;52.600;4.694;2023-03-16T05:31:25;8.55;;;3.35;;
62724;SDS011;49026;52.600;4.694;2023-03-16T05:33:58;8.55;;;4.70;;
62724;SDS011;49026;52.600;4.694;2023-03-16T05:36:23;7.82;;;3.33;;
62724;SDS011;49026;52.600;4.694;2023-03-16T05:38:49;5.53;;;2.58;;
62724;SDS011;49026;52.600;4.694;2023-03-16T05:41:15;15.00;;;4.13;;
62724;SDS011;49026;52.600;4.694;2023-03-16T05:43:42;4.70;;;2.35;;
62724;SDS011;49026;52.600;4.694;2023-03-16T05:46:08;5.68;;;2.83;;
62724;SDS011;49026;52.600;4.694;2023-03-16T05:48:33;6.85;;;3.05;;
62724;SDS011;49026;52.600;4.694;2023-03-16T05:51:02;8.07;;;4.07;;
62724;SDS011;49026;52.600;4.694;2023-03-16T05:53:30;3.80;;;2.38;;
62724;SDS011;49026;52.600;4.694;2023-03-16T05:55:59;4.10;;;2.53;;
62724;SDS011;49026;52.600;4.694;2023-03-16T05:58:25;5.22;;;2.63;;
62724;SDS011;49026;52.600;4.694;2023-03-16T06:00:50;11.55;;;3.60;;
62724;SDS011;49026;52.600;4.694;2023-03-16T06:03:16;6.60;;;2.30;;
62724;SDS011;49026;52.600;4.694;2023-03-16T06:05:41;7.30;;;3.05;;
62724;SDS011;49026;52.600;4.694;2023-03-16T06:08:09;5.45;;;3.55;;
62724;SDS011;49026;52.600;4.694;2023-03-16T06:10:35;6.22;;;3.13;;
62724;SDS011;49026;52.600;4.694;2023-03-16T06:13:00;5.00;;;2.42;;
62724;SDS011;49026;52.600;4.694;2023-03-16T06:15:26;3.67;;;2.20;;
62724;SDS011;49026;52.600;4.694;2023-03-16T06:17:54;8.07;;;2.00;;
62724;SDS011;49026;52.600;4.694;2023-03-16T06:20:23;3.95;;;2.10;;
62724;SDS011;49026;52.600;4.694;2023-03-16T06:22:51;5.57;;;3.00;;
62724;SDS011;49026;52.600;4.694;2023-03-16T06:25:17;4.18;;;1.75;;
62724;SDS011;49026;52.600;4.694;2023-03-16T06:27:42;4.13;;;2.25;;
62724;SDS011;49026;52.600;4.694;2023-03-16T06:30:09;6.78;;;2.10;;
62724;SDS011;49026;52.600;4.694;2023-03-16T06:32:36;5.25;;;2.60;;
62724;SDS011;49026;52.600;4.694;2023-03-16T06:35:02;4.03;;;2.13;;
62724;SDS011;49026;52.600;4.694;2023-03-16T06:37:29;5.80;;;2.38;;
62724;SDS011;49026;52.600;4.694;2023-03-16T06:39:57;11.25;;;2.72;;
62724;SDS011;49026;52.600;4.694;2023-03-16T06:42:22;6.03;;;2.63;;
62724;SDS011;49026;52.600;4.694;2023-03-16T06:44:48;4.05;;;1.50;;
62724;SDS011;49026;52.600;4.694;2023-03-16T06:47:13;4.03;;;2.33;;
62724;SDS011;49026;52.600;4.694;2023-03-16T06:49:38;4.50;;;2.28;;
62724;SDS011;49026;52.600;4.694;2023-03-16T06:52:04;2.80;;;1.83;;
62724;SDS011;49026;52.600;4.694;2023-03-16T06:54:29;4.57;;;1.65;;
62724;SDS011;49026;52.600;4.694;2023-03-16T06:56:58;4.55;;;1.85;;
62724;SDS011;49026;52.600;4.694;2023-03-16T06:59:23;4.00;;;1.95;;
62724;SDS011;49026;52.600;4.694;2023-03-16T07:01:48;5.75;;;1.92;;
62724;SDS011;49026;52.600;4.694;2023-03-16T07:04:14;6.82;;;2.22;;
62724;SDS011;49026;52.600;4.694;2023-03-16T07:06:40;4.72;;;1.92;;
62724;SDS011;49026;52.600;4.694;2023-03-16T07:09:07;5.25;;;2.10;;
62724;SDS011;49026;52.600;4.694;2023-03-16T07:11:33;5.40;;;1.75;;
62724;SDS011;49026;52.600;4.694;2023-03-16T07:13:58;2.17;;;1.48;;
62724;SDS011;49026;52.600;4.694;2023-03-16T07:16:24;7.15;;;2.10;;
62724;SDS011;49026;52.600;4.694;2023-03-16T07:18:49;2.90;;;1.55;;
62724;SDS011;49026;52.600;4.694;2023-03-16T07:21:16;7.78;;;2.88;;
62724;SDS011;49026;52.600;4.694;2023-03-16T07:23:42;4.97;;;1.90;;
62724;SDS011;49026;52.600;4.694;2023-03-16T07:26:14;3.72;;;2.03;;
62724;SDS011;49026;52.600;4.694;2023-03-16T07:28:40;5.60;;;1.92;;
62724;SDS011;49026;52.600;4.694;2023-03-16T07:31:11;5.40;;;1.77;;
62724;SDS011;49026;52.600;4.694;2023-03-16T07:33:38;4.05;;;2.10;;
62724;SDS011;49026;52.600;4.694;2023-03-16T07:36:04;2.85;;;1.50;;
62724;SDS011;49026;52.600;4.694;2023-03-16T07:38:32;4.05;;;2.38;;
62724;SDS011;49026;52.600;4.694;2023-03-16T07:40:58;4.00;;;1.92;;
62724;SDS011;49026;52.600;4.694;2023-03-16T07:43:24;3.70;;;1.58;;
62724;SDS011;49026;52.600;4.694;2023-03-16T07:45:53;5.03;;;1.90;;
62724;SDS011;49026;52.600;4.694;2023-03-16T07:48:18;3.30;;;1.80;;
62724;SDS011;49026;52.600;4.694;2023-03-16T07:50:47;3.65;;;2.38;;
62724;SDS011;49026;52.600;4.694;2023-03-16T07:53:13;4.57;;;1.73;;
62724;SDS011;49026;52.600;4.694;2023-03-16T07:55:41;3.40;;;1.80;;
62724;SDS011;49026;52.600;4.694;2023-03-16T07:58:10;5.25;;;1.80;;
62724;SDS011;49026;52.600;4.694;2023-03-16T08:00:36;8.23;;;2.33;;
62724;SDS011;49026;52.600;4.694;2023-03-16T08:03:02;5.50;;;2.38;;
62724;SDS011;49026;52.600;4.694;2023-03-16T08:05:28;3.72;;;1.80;;
62724;SDS011;49026;52.600;4.694;2023-03-16T08:07:53;6.70;;;2.97;;
62724;SDS011;49026;52.600;4.694;2023-03-16T08:10:23;5.63;;;2.30;;
62724;SDS011;49026;52.600;4.694;2023-03-16T08:12:49;7.47;;;2.55;;
62724;SDS011;49026;52.600;4.694;2023-03-16T08:15:15;5.55;;;2.67;;
62724;SDS011;49026;52.600;4.694;2023-03-16T08:17:41;10.30;;;3.08;;
62724;SDS011;49026;52.600;4.694;2023-03-16T08:20:06;4.07;;;2.22;;
62724;SDS011;49026;52.600;4.694;2023-03-16T08:22:38;10.38;;;2.50;;
62724;SDS011;49026;52.600;4.694;2023-03-16T08:25:04;4.88;;;2.08;;
62724;SDS011;49026;52.600;4.694;2023-03-16T08:27:31;7.18;;;2.58;;
62724;SDS011;49026;52.600;4.694;2023-03-16T08:30:01;9.35;;;2.25;;
62724;SDS011;49026;52.600;4.694;2023-03-16T08:32:29;3.47;;;2.10;;
62724;SDS011;49026;52.600;4.694;2023-03-16T08:34:54;5.32;;;2.20;;
62724;SDS011;49026;52.600;4.694;2023-03-16T08:37:21;5.75;;;2.25;;
62724;SDS011;49026;52.600;4.694;2023-03-16T08:39:48;8.00;;;2.28;;
62724;SDS011;49026;52.600;4.694;2023-03-16T08:42:15;10.15;;;2.65;;
62724;SDS011;49026;52.600;4.694;2023-03-16T08:44:43;2.33;;;1.80;;
62724;SDS011;49026;52.600;4.694;2023-03-16T08:47:09;5.60;;;2.85;;
62724;SDS011;49026;52.600;4.694;2023-03-16T08:49:38;5.93;;;2.60;;
62724;SDS011;49026;52.600;4.694;2023-03-16T08:52:03;4.22;;;1.70;;
62724;SDS011;49026;52.600;4.694;2023-03-16T08:54:29;9.65;;;2.40;;
62724;SDS011;49026;52.600;4.694;2023-03-16T08:56:56;4.53;;;1.83;;
62724;SDS011;49026;52.600;4.694;2023-03-16T08:59:22;5.50;;;2.22;;
62724;SDS011;49026;52.600;4.694;2023-03-16T09:01:47;4.82;;;1.85;;
62724;SDS011;49026;52.600;4.694;2023-03-16T09:04:17;5.22;;;2.80;;
62724;SDS011;49026;52.600;4.694;2023-03-16T09:06:42;8.18;;;3.58;;
62724;SDS011;49026;52.600;4.694;2023-03-16T09:09:07;10.20;;;3.25;;
62724;SDS011;49026;52.600;4.694;2023-03-16T09:11:34;4.88;;;2.13;;
62724;SDS011;49026;52.600;4.694;2023-03-16T09:14:04;5.70;;;1.80;;
62724;SDS011;49026;52.600;4.694;2023-03-16T09:16:30;9.98;;;2.72;;
62724;SDS011;49026;52.600;4.694;2023-03-16T09:19:01;4.45;;;2.22;;
62724;SDS011;49026;52.600;4.694;2023-03-16T09:21:27;7.05;;;3.03;;
62724;SDS011;49026;52.600;4.694;2023-03-16T09:23:52;8.57;;;2.80;;
62724;SDS011;49026;52.600;4.694;2023-03-16T09:26:20;4.20;;;2.17;;
62724;SDS011;49026;52.600;4.694;2023-03-16T09:28:45;7.35;;;2.38;;
62724;SDS011;49026;52.600;4.694;2023-03-16T09:31:17;6.95;;;2.58;;
62724;SDS011;49026;52.600;4.694;2023-03-16T09:33:44;6.53;;;2.80;;
62724;SDS011;49026;52.600;4.694;2023-03-16T09:36:10;6.53;;;2.63;;
62724;SDS011;49026;52.600;4.694;2023-03-16T09:38:35;4.55;;;1.98;;
62724;SDS011;49026;52.600;4.694;2023-03-16T09:41:05;7.10;;;2.47;;
62724;SDS011;49026;52.600;4.694;2023-03-16T09:43:38;10.52;;;2.70;;
62724;SDS011;49026;52.600;4.694;2023-03-16T09:46:24;7.18;;;2.88;;
62724;SDS011;49026;52.600;4.694;2023-03-16T09:48:53;8.75;;;2.78;;
62724;SDS011;49026;52.600;4.694;2023-03-16T09:51:26;3.10;;;1.80;;
62724;SDS011;49026;52.600;4.694;2023-03-16T09:54:27;4.90;;;2.92;;
62724;SDS011;49026;52.600;4.694;2023-03-16T09:56:58;4.80;;;2.50;;
62724;SDS011;49026;52.600;4.694;2023-03-16T09:59:25;6.40;;;2.47;;
62724;SDS011;49026;52.600;4.694;2023-03-16T10:02:06;3.90;;;2.15;;
62724;SDS011;49026;52.600;4.694;2023-03-16T10:05:08;4.88;;;2.58;;
62724;SDS011;49026;52.600;4.694;2023-03-16T10:12:34;5.22;;;2.33;;
62724;SDS011;49026;52.600;4.694;2023-03-16T10:15:09;6.85;;;2.08;;
62724;SDS011;49026;52.600;4.694;2023-03-16T10:17:40;3.08;;;1.75;;
62724;SDS011;49026;52.600;4.694;2023-03-16T10:20:16;5.93;;;2.33;;
62724;SDS011;49026;52.600;4.694;2023-03-16T10:22:45;7.97;;;2.35;;
62724;SDS011;49026;52.600;4.694;2023-03-16T10:25:21;6.22;;;2.45;;
62724;SDS011;49026;52.600;4.694;2023-03-16T10:27:51;9.35;;;3.50;;
62724;SDS011;49026;52.600;4.694;2023-03-16T10:32:56;8.85;;;2.92;;
62724;SDS011;49026;52.600;4.694;2023-03-16T10:43:42;8.95;;;3.03;;
62724;SDS011;49026;52.600;4.694;2023-03-16T10:46:11;8.83;;;3.27;;
62724;SDS011;49026;52.600;4.694;2023-03-16T10:48:37;10.57;;;2.58;;
62724;SDS011;49026;52.600;4.694;2023-03-16T10:51:14;5.32;;;2.40;;
62724;SDS011;49026;52.600;4.694;2023-03-16T10:53:42;2.83;;;1.83;;
62724;SDS011;49026;52.600;4.694;2023-03-16T10:56:17;5.10;;;2.00;;
62724;SDS011;49026;52.600;4.694;2023-03-16T10:58:44;4.63;;;2.28;;
62724;SDS011;49026;52.600;4.694;2023-03-16T11:01:20;3.55;;;2.08;;
62724;SDS011;49026;52.600;4.694;2023-03-16T11:03:49;7.97;;;2.85;;
62724;SDS011;49026;52.600;4.694;2023-03-16T11:06:22;8.50;;;2.30;;
62724;SDS011;49026;52.600;4.694;2023-03-16T11:08:54;6.78;;;2.42;;
62724;SDS011;49026;52.600;4.694;2023-03-16T11:11:29;5.00;;;2.42;;
62724;SDS011;49026;52.600;4.694;2023-03-16T11:13:57;6.38;;;2.67;;
62724;SDS011;49026;52.600;4.694;2023-03-16T11:16:29;3.78;;;2.13;;
62724;SDS011;49026;52.600;4.694;2023-03-16T11:19:05;3.15;;;1.83;;
62724;SDS011;49026;52.600;4.694;2023-03-16T11:21:46;5.60;;;2.35;;
62724;SDS011;49026;52.600;4.694;2023-03-16T11:24:33;6.28;;;2.75;;
62724;SDS011;49026;52.600;4.694;2023-03-16T11:32:21;3.42;;;1.95;;
62724;SDS011;49026;52.600;4.694;2023-03-16T11:34:51;7.22;;;2.97;;
62724;SDS011;49026;52.600;4.694;2023-03-16T11:44:54;2.50;;;1.65;;
62724;SDS011;49026;52.600;4.694;2023-03-16T11:50:20;5.47;;;2.17;;
62724;SDS011;49026;52.600;4.694;2023-03-16T11:55:52;5.43;;;2.22;;
62724;SDS011;49026;52.600;4.694;2023-03-16T12:12:34;5.88;;;2.05;;
62724;SDS011;49026;52.600;4.694;2023-03-16T12:15:10;9.48;;;2.00;;
62724;SDS011;49026;52.600;4.694;2023-03-16T12:17:58;7.88;;;2.28;;
62724;SDS011;49026;52.600;4.694;2023-03-16T12:20:31;3.13;;;1.38;;
62724;SDS011;49026;52.600;4.694;2023-03-16T12:23:07;4.78;;;1.55;;
62724;SDS011;49026;52.600;4.694;2023-03-16T12:25:38;3.92;;;1.00;;
62724;SDS011;49026;52.600;4.694;2023-03-16T12:28:10;4.72;;;1.70;;
62724;SDS011;49026;52.600;4.694;2023-03-16T12:36:12;4.93;;;1.90;;
62724;SDS011;49026;52.600;4.694;2023-03-16T12:44:20;5.90;;;1.50;;
62724;SDS011;49026;52.600;4.694;2023-03-16T12:47:13;4.80;;;1.30;;
62724;SDS011;49026;52.600;4.694;2023-03-16T12:50:07;5.40;;;1.08;;
62724;SDS011;49026;52.600;4.694;2023-03-16T12:52:41;3.53;;;1.63;;
62724;SDS011;49026;52.600;4.694;2023-03-16T12:55:16;4.85;;;1.65;;
62724;SDS011;49026;52.600;4.694;2023-03-16T12:58:06;7.22;;;1.77;;
62724;SDS011;49026;52.600;4.694;2023-03-16T13:00:37;5.85;;;1.77;;
62724;SDS011;49026;52.600;4.694;2023-03-16T13:03:19;5.82;;;1.83;;
62724;SDS011;49026;52.600;4.694;2023-03-16T13:05:51;7.13;;;1.95;;
62724;SDS011;49026;52.600;4.694;2023-03-16T13:08:22;7.05;;;1.45;;
62724;SDS011;49026;52.600;4.694;2023-03-16T13:11:04;4.35;;;1.20;;
62724;SDS011;49026;52.600;4.694;2023-03-16T13:16:23;6.10;;;1.38;;
62724;SDS011;49026;52.600;4.694;2023-03-16T13:18:56;6.80;;;1.60;;
62724;SDS011;49026;52.600;4.694;2023-03-16T13:27:14;6.93;;;1.88;;
62724;SDS011;49026;52.600;4.694;2023-03-16T13:29:51;6.57;;;1.60;;
62724;SDS011;49026;52.600;4.694;2023-03-16T13:32:19;2.60;;;0.90;;
62724;SDS011;49026;52.600;4.694;2023-03-16T13:34:46;5.50;;;1.55;;
62724;SDS011;49026;52.600;4.694;2023-03-16T13:37:14;6.50;;;1.35;;
62724;SDS011;49026;52.600;4.694;2023-03-16T13:39:50;4.68;;;1.33;;
62724;SDS011;49026;52.600;4.694;2023-03-16T13:42:18;5.80;;;1.38;;
62724;SDS011;49026;52.600;4.694;2023-03-16T13:44:47;4.40;;;1.08;;
62724;SDS011;49026;52.600;4.694;2023-03-16T13:47:17;2.10;;;0.85;;
62724;SDS011;49026;52.600;4.694;2023-03-16T13:49:45;9.00;;;1.52;;
62724;SDS011;49026;52.600;4.694;2023-03-16T13:52:23;5.25;;;1.00;;
62724;SDS011;49026;52.600;4.694;2023-03-16T13:54:53;10.43;;;1.20;;
62724;SDS011;49026;52.600;4.694;2023-03-16T13:57:21;7.15;;;2.25;;
62724;SDS011;49026;52.600;4.694;2023-03-16T13:59:51;5.77;;;1.50;;
62724;SDS011;49026;52.600;4.694;2023-03-16T14:02:25;7.35;;;1.85;;
62724;SDS011;49026;52.600;4.694;2023-03-16T14:04:50;7.35;;;1.70;;
62724;SDS011;49026;52.600;4.694;2023-03-16T14:07:17;1.55;;;0.88;;
62724;SDS011;49026;52.600;4.694;2023-03-16T14:09:45;5.37;;;2.10;;
62724;SDS011;49026;52.600;4.694;2023-03-16T14:12:15;6.32;;;1.88;;
62724;SDS011;49026;52.600;4.694;2023-03-16T14:14:45;9.43;;;1.35;;
62724;SDS011;49026;52.600;4.694;2023-03-16T14:17:17;5.72;;;1.55;;
62724;SDS011;49026;52.600;4.694;2023-03-16T14:19:48;5.35;;;1.33;;
62724;SDS011;49026;52.600;4.694;2023-03-16T14:22:19;5.10;;;1.50;;
62724;SDS011;49026;52.600;4.694;2023-03-16T14:24:55;4.95;;;1.40;;
62724;SDS011;49026;52.600;4.694;2023-03-16T14:27:31;5.03;;;1.48;;
62724;SDS011;49026;52.600;4.694;2023-03-16T14:32:54;5.30;;;1.58;;
62724;SDS011;49026;52.600;4.694;2023-03-16T14:35:31;4.78;;;1.25;;
62724;SDS011;49026;52.600;4.694;2023-03-16T14:41:01;7.15;;;1.33;;
62724;SDS011;49026;52.600;4.694;2023-03-16T14:43:33;4.65;;;1.25;;
62724;SDS011;49026;52.600;4.694;2023-03-16T14:46:02;6.03;;;1.15;;
62724;SDS011;49026;52.600;4.694;2023-03-16T14:48:30;5.22;;;1.40;;
62724;SDS011;49026;52.600;4.694;2023-03-16T14:50:57;3.70;;;1.27;;
62724;SDS011;49026;52.600;4.694;2023-03-16T14:53:27;4.20;;;1.05;;
62724;SDS011;49026;52.600;4.694;2023-03-16T14:55:53;4.75;;;1.08;;
62724;SDS011;49026;52.600;4.694;2023-03-16T14:58:20;6.05;;;1.00;;
62724;SDS011;49026;52.600;4.694;2023-03-16T15:00:46;2.20;;;0.90;;
62724;SDS011;49026;52.600;4.694;2023-03-16T15:03:13;4.22;;;0.88;;
62724;SDS011;49026;52.600;4.694;2023-03-16T15:05:44;1.52;;;0.70;;
62724;SDS011;49026;52.600;4.694;2023-03-16T15:08:21;5.82;;;1.08;;
62724;SDS011;49026;52.600;4.694;2023-03-16T15:13:20;3.88;;;1.38;;
62724;SDS011;49026;52.600;4.694;2023-03-16T15:16:01;3.85;;;1.30;;
62724;SDS011;49026;52.600;4.694;2023-03-16T15:18:30;1.95;;;0.80;;
62724;SDS011;49026;52.600;4.694;2023-03-16T15:20:56;5.05;;;1.63;;
62724;SDS011;49026;52.600;4.694;2023-03-16T15:23:21;4.55;;;1.20;;
62724;SDS011;49026;52.600;4.694;2023-03-16T15:25:49;5.85;;;1.20;;
62724;SDS011;49026;52.600;4.694;2023-03-16T15:28:20;3.95;;;0.90;;
62724;SDS011;49026;52.600;4.694;2023-03-16T15:30:48;2.20;;;0.77;;
62724;SDS011;49026;52.600;4.694;2023-03-16T15:33:15;3.00;;;1.10;;
62724;SDS011;49026;52.600;4.694;2023-03-16T15:35:41;5.28;;;1.25;;
62724;SDS011;49026;52.600;4.694;2023-03-16T15:38:11;5.53;;;1.50;;
62724;SDS011;49026;52.600;4.694;2023-03-16T15:40:40;2.42;;;0.88;;
62724;SDS011;49026;52.600;4.694;2023-03-16T15:43:17;3.33;;;1.13;;
62724;SDS011;49026;52.600;4.694;2023-03-16T15:45:43;3.08;;;1.10;;
62724;SDS011;49026;52.600;4.694;2023-03-16T15:48:10;6.35;;;1.10;;
62724;SDS011;49026;52.600;4.694;2023-03-16T15:50:36;5.50;;;1.40;;
62724;SDS011;49026;52.600;4.694;2023-03-16T15:53:07;4.70;;;1.23;;
62724;SDS011;49026;52.600;4.694;2023-03-16T15:55:38;4.38;;;1.33;;
62724;SDS011;49026;52.600;4.694;2023-03-16T15:58:09;3.67;;;1.17;;
62724;SDS011;49026;52.600;4.694;2023-03-16T16:00:41;6.00;;;1.30;;
62724;SDS011;49026;52.600;4.694;2023-03-16T16:03:11;1.48;;;0.80;;
62724;SDS011;49026;52.600;4.694;2023-03-16T16:05:37;5.97;;;1.25;;
62724;SDS011;49026;52.600;4.694;2023-03-16T16:08:03;4.97;;;1.10;;
62724;SDS011;49026;52.600;4.694;2023-03-16T16:10:29;1.67;;;0.90;;
62724;SDS011;49026;52.600;4.694;2023-03-16T16:12:55;3.50;;;1.02;;
62724;SDS011;49026;52.600;4.694;2023-03-16T16:15:27;4.82;;;1.25;;
62724;SDS011;49026;52.600;4.694;2023-03-16T16:17:59;1.92;;;0.90;;
62724;SDS011;49026;52.600;4.694;2023-03-16T16:20:37;4.03;;;1.38;;
62724;SDS011;49026;52.600;4.694;2023-03-16T16:23:02;3.90;;;1.08;;
62724;SDS011;49026;52.600;4.694;2023-03-16T16:25:30;5.10;;;1.58;;
62724;SDS011;49026;52.600;4.694;2023-03-16T16:28:09;3.78;;;1.38;;